Time;durP1;ratioP1;P1;durP2;ratioP2;P2;SDS_P1;SDS_P2;PMS_P1;PMS_P2;Temp;Humidity;BMP_temperature;BMP_pressure;BME280_temperature;BME280_humidity;BME280_pressure;Samples;Min_cycle;Max_cycle;Signal;HPM_P1;HPM_P2
2022/12/04 00:07:29;;;;;;;0.20;0.10;;;9.60;99.90;;;;;;21043956;28;20414;-68
2022/12/04 00:17:32;;;;;;;0.20;0.00;;;9.80;99.90;;;;;;21023470;28;20457;-69
2022/12/04 00:27:38;;;;;;;0.20;0.10;;;9.80;99.90;;;;;;21042604;28;20409;-70
2022/12/04 00:37:41;;;;;;;0.20;0.10;;;9.90;99.90;;;;;;21042593;28;20397;-70
2022/12/04 00:47:47;;;;;;;0.20;0.10;;;9.70;99.90;;;;;;21041668;28;20425;-69
2022/12/04 00:57:50;;;;;;;0.20;0.10;;;9.50;99.90;;;;;;21026224;28;20409;-69
2022/12/04 01:08:02;;;;;;;0.20;0.10;;;9.50;99.90;;;;;;21037499;28;20421;-70
2022/12/04 01:18:06;;;;;;;0.20;0.10;;;9.40;99.90;;;;;;21057037;28;20413;-70
2022/12/04 01:28:11;;;;;;;0.20;0.00;;;9.50;99.90;;;;;;21035162;28;20477;-69
2022/12/04 01:38:15;;;;;;;0.20;0.10;;;9.70;99.90;;;;;;21052483;28;20403;-68
2022/12/04 01:48:24;;;;;;;0.20;0.08;;;9.80;99.90;;;;;;21052776;28;20409;-69
2022/12/04 01:58:33;;;;;;;0.20;0.10;;;10.00;99.90;;;;;;21032545;28;20404;-69
2022/12/04 02:08:38;;;;;;;0.20;0.10;;;10.20;99.90;;;;;;21052179;28;20620;-70
2022/12/04 02:18:52;;;;;;;0.20;0.00;;;10.10;99.90;;;;;;21049981;28;20402;-74
2022/12/04 02:29:01;;;;;;;0.20;0.10;;;10.00;99.90;;;;;;21030126;28;20406;-69
2022/12/04 02:39:09;;;;;;;0.20;0.10;;;9.90;99.90;;;;;;21032729;28;20402;-69
2022/12/04 02:49:18;;;;;;;0.20;0.10;;;9.70;99.90;;;;;;21048549;28;20557;-72
2022/12/04 02:59:26;;;;;;;0.20;0.00;;;9.10;99.90;;;;;;21046957;28;20409;-72
2022/12/04 03:09:36;;;;;;;0.20;0.10;;;8.90;99.90;;;;;;21046585;28;20398;-71
2022/12/04 03:19:45;;;;;;;0.20;0.10;;;8.80;99.90;;;;;;21027478;28;20469;-70
2022/12/04 03:29:58;;;;;;;0.20;0.10;;;8.80;99.90;;;;;;21011977;28;20413;-70
2022/12/04 03:40:08;;;;;;;0.20;0.10;;;8.70;99.90;;;;;;21043913;28;20386;-70
2022/12/04 03:50:17;;;;;;;0.20;0.10;;;8.60;99.90;;;;;;21025493;28;20456;-70
2022/12/04 04:00:22;;;;;;;0.20;0.10;;;8.60;99.90;;;;;;21023431;28;20398;-71
2022/12/04 04:10:27;;;;;;;0.20;0.10;;;8.60;99.90;;;;;;21042288;28;20414;-71
2022/12/04 04:31:16;;;;;;;0.20;0.00;;;8.90;99.90;;;;;;21043640;28;20623;-71
2022/12/04 04:41:27;;;;;;;0.20;0.10;;;9.10;99.90;;;;;;21059883;28;20501;-69
2022/12/04 04:51:35;;;;;;;0.20;0.10;;;9.20;99.90;;;;;;21059910;28;20401;-71
2022/12/04 05:01:40;;;;;;;0.20;0.10;;;9.30;99.90;;;;;;21057396;28;20446;-71
2022/12/04 05:11:45;;;;;;;0.20;0.10;;;9.40;99.90;;;;;;21039803;28;20404;-71
2022/12/04 05:21:48;;;;;;;0.20;0.00;;;9.40;99.90;;;;;;21055713;28;20428;-70
2022/12/04 05:31:53;;;;;;;0.20;0.10;;;9.30;99.90;;;;;;21054953;28;20413;-70
2022/12/04 05:41:57;;;;;;;0.20;0.10;;;9.10;99.90;;;;;;21054658;28;20417;-72
2022/12/04 05:52:03;;;;;;;0.20;0.10;;;9.10;99.90;;;;;;21055005;28;20414;-72
2022/12/04 06:02:07;;;;;;;0.20;0.10;;;8.70;99.90;;;;;;21051128;28;20402;-70
2022/12/04 06:12:12;;;;;;;0.20;0.10;;;8.50;99.90;;;;;;21053906;28;20857;-70
2022/12/04 06:22:16;;;;;;;0.20;0.10;;;8.30;99.90;;;;;;21034456;28;20409;-70
2022/12/04 06:32:22;;;;;;;0.20;0.10;;;8.30;99.90;;;;;;21051471;28;20492;-71
2022/12/04 06:42:26;;;;;;;0.20;0.10;;;8.30;99.90;;;;;;21051832;28;20395;-71
2022/12/04 06:52:33;;;;;;;0.20;0.10;;;8.20;99.90;;;;;;21050306;28;20402;-69
2022/12/04 07:02:37;;;;;;;0.20;0.00;;;8.20;99.90;;;;;;21048548;28;20410;-70
2022/12/04 07:12:42;;;;;;;0.20;0.10;;;8.20;99.90;;;;;;21047390;28;20485;-71
2022/12/04 07:22:46;;;;;;;0.20;0.10;;;8.10;99.90;;;;;;21028652;28;20752;-71
2022/12/04 07:32:51;;;;;;;0.20;0.10;;;8.10;99.90;;;;;;21128601;28;20416;-71
2022/12/04 07:42:54;;;;;;;0.20;0.10;;;8.20;99.90;;;;;;21112900;28;20405;-70
2022/12/04 07:52:59;;;;;;;0.20;0.10;;;8.40;99.90;;;;;;21089453;28;20421;-73
2022/12/04 08:03:03;;;;;;;0.20;0.10;;;8.50;99.90;;;;;;21042803;28;20410;-71
2022/12/04 08:13:10;;;;;;;0.20;0.10;;;8.50;99.90;;;;;;21022517;28;21119;-70
2022/12/04 08:23:14;;;;;;;0.20;0.10;;;8.60;99.90;;;;;;21035914;28;20406;-71
2022/12/04 08:33:19;;;;;;;0.20;0.10;;;8.70;99.90;;;;;;21040536;28;20406;-71
2022/12/04 08:43:22;;;;;;;0.20;0.10;;;8.80;99.90;;;;;;21042202;28;20398;-70
2022/12/04 08:53:28;;;;;;;0.20;0.10;;;9.20;99.90;;;;;;21024281;28;20418;-70
2022/12/04 09:03:31;;;;;;;0.20;0.10;;;9.40;99.90;;;;;;21023710;28;20390;-69
2022/12/04 09:13:37;;;;;;;0.20;0.00;;;9.50;99.90;;;;;;21023999;28;20639;-66
2022/12/04 09:23:41;;;;;;;0.20;0.10;;;9.60;99.90;;;;;;21050027;28;20406;-67
2022/12/04 09:33:47;;;;;;;0.20;0.00;;;9.70;99.90;;;;;;21036931;28;20406;-68
2022/12/04 09:43:57;;;;;;;0.20;0.10;;;10.10;99.90;;;;;;21052447;28;20402;-68
2022/12/04 09:54:05;;;;;;;0.20;0.10;;;10.80;99.90;;;;;;21053414;28;20471;-67
2022/12/04 10:04:10;;;;;;;0.20;0.00;;;10.80;99.90;;;;;;21053308;28;20414;-68
2022/12/04 10:14:44;;;;;;;0.20;0.10;;;10.80;99.90;;;;;;21051139;28;20425;-68
2022/12/04 10:24:51;;;;;;;0.20;0.00;;;11.10;99.90;;;;;;21031796;28;20390;-67
2022/12/04 10:35:02;;;;;;;0.20;0.10;;;11.10;99.90;;;;;;21023143;28;20510;-67
2022/12/04 10:45:07;;;;;;;0.20;0.00;;;11.60;99.90;;;;;;21048538;28;20490;-67
2022/12/04 10:55:13;;;;;;;0.20;0.10;;;12.10;99.90;;;;;;21046416;28;20419;-68
2022/12/04 11:05:25;;;;;;;0.20;0.10;;;12.10;99.90;;;;;;21044902;28;20394;-68
2022/12/04 11:15:30;;;;;;;0.20;0.10;;;12.40;99.90;;;;;;21045036;28;20409;-68
2022/12/04 11:25:38;;;;;;;0.20;0.08;;;12.30;99.90;;;;;;21043627;28;20406;-69
2022/12/04 11:35:43;;;;;;;0.20;0.10;;;12.50;99.90;;;;;;21027307;28;20409;-69
2022/12/04 11:45:55;;;;;;;0.20;0.10;;;12.50;99.90;;;;;;21042901;28;20750;-68
2022/12/04 11:56:17;;;;;;;0.20;0.10;;;12.60;99.90;;;;;;21023166;28;20410;-67
2022/12/04 12:06:32;;;;;;;0.20;0.10;;;12.40;99.90;;;;;;21004449;28;20425;-67
2022/12/04 12:16:52;;;;;;;0.20;0.10;;;12.70;99.90;;;;;;21038023;28;20428;-68
2022/12/04 12:27:27;;;;;;;0.20;0.10;;;13.10;99.90;;;;;;21039784;28;20442;-67
2022/12/04 12:37:41;;;;;;;0.20;0.10;;;13.80;99.90;;;;;;21021941;28;20406;-69
2022/12/04 12:47:50;;;;;;;0.20;0.10;;;14.10;99.90;;;;;;21038560;28;20414;-68
2022/12/04 12:58:04;;;;;;;0.20;0.10;;;14.50;99.90;;;;;;21048687;28;20537;-68
2022/12/04 13:08:17;;;;;;;0.20;0.10;;;15.00;99.90;;;;;;21053971;28;20420;-66
2022/12/04 13:18:27;;;;;;;0.20;0.10;;;14.60;99.90;;;;;;21055255;28;20394;-68
2022/12/04 13:28:45;;;;;;;0.20;0.03;;;15.70;99.90;;;;;;21037086;28;20683;-68
2022/12/04 13:39:21;;;;;;;0.20;0.00;;;16.30;99.90;;;;;;21034661;28;20417;-65
2022/12/04 13:49:27;;;;;;;0.20;0.10;;;15.20;99.90;;;;;;21052513;28;20424;-67
2022/12/04 13:59:38;;;;;;;0.20;0.10;;;14.00;99.90;;;;;;21054835;28;20394;-67
2022/12/04 14:09:48;;;;;;;0.20;0.10;;;13.60;99.90;;;;;;21019575;28;20417;-67
2022/12/04 14:19:56;;;;;;;0.20;0.10;;;15.00;99.90;;;;;;21034259;28;20405;-66
2022/12/04 14:30:18;;;;;;;0.20;0.10;;;14.40;99.90;;;;;;21052368;28;20471;-68
2022/12/04 14:40:25;;;;;;;0.20;0.10;;;13.90;99.90;;;;;;21051710;28;20393;-66
2022/12/04 14:50:38;;;;;;;0.20;0.03;;;14.60;99.90;;;;;;21051755;28;20405;-66
2022/12/04 15:00:49;;;;;;;0.20;0.00;;;14.50;99.90;;;;;;21050136;28;20414;-67
2022/12/04 15:33:39;;;;;;;0.20;0.10;;;16.00;99.90;;;;;;21180574;28;20422;-68
2022/12/04 15:43:45;;;;;;;0.20;0.10;;;14.90;99.90;;;;;;21216987;28;20398;-68
2022/12/04 15:53:50;;;;;;;0.20;0.10;;;14.10;99.90;;;;;;21196678;28;20391;-67
2022/12/04 16:03:55;;;;;;;0.20;0.10;;;13.40;99.90;;;;;;21213390;28;20413;-66
2022/12/04 16:14:16;;;;;;;0.20;0.10;;;13.10;99.90;;;;;;21211486;28;20462;-66
2022/12/04 16:24:20;;;;;;;0.20;0.10;;;12.90;99.90;;;;;;21214436;28;20477;-66
2022/12/04 16:34:25;;;;;;;0.20;0.10;;;12.60;99.90;;;;;;21194183;28;20406;-65
2022/12/04 16:44:30;;;;;;;0.20;0.10;;;12.00;99.90;;;;;;21195975;28;20401;-66
2022/12/04 16:54:35;;;;;;;0.20;0.10;;;12.10;99.90;;;;;;21212315;28;20395;-67
2022/12/04 17:04:38;;;;;;;0.20;0.10;;;11.90;99.90;;;;;;21196006;28;20747;-67
2022/12/04 17:14:44;;;;;;;0.20;0.10;;;11.90;99.90;;;;;;21206451;28;20417;-68
2022/12/04 17:24:48;;;;;;;7.20;6.80;;;11.10;99.90;;;;;;21204640;28;20387;-68
2022/12/04 17:34:59;;;;;;;0.20;0.00;;;10.80;99.90;;;;;;21205304;28;20520;-67
2022/12/04 17:45:04;;;;;;;0.20;0.03;;;10.60;99.90;;;;;;21214280;28;20424;-66
2022/12/04 17:55:09;;;;;;;0.20;0.10;;;9.90;99.90;;;;;;21221595;28;20407;-66
2022/12/04 18:05:13;;;;;;;0.20;0.10;;;9.50;99.90;;;;;;21222653;28;20421;-68
2022/12/04 18:15:18;;;;;;;0.20;0.10;;;9.10;99.90;;;;;;21220746;28;20395;-66
2022/12/04 18:25:22;;;;;;;0.20;0.10;;;8.90;99.90;;;;;;21137881;28;20400;-67
2022/12/04 18:35:27;;;;;;;0.20;0.10;;;8.60;99.90;;;;;;21203649;28;20407;-67
2022/12/04 18:45:31;;;;;;;0.20;0.10;;;8.40;99.90;;;;;;21233243;27;20396;-68
2022/12/04 18:55:37;;;;;;;0.20;0.10;;;8.30;99.90;;;;;;21304096;27;20400;-67
2022/12/04 19:05:48;;;;;;;0.20;0.10;;;8.80;99.90;;;;;;21282312;27;20397;-67
2022/12/04 19:15:53;;;;;;;0.20;0.10;;;8.10;99.90;;;;;;21302708;27;20416;-66
2022/12/04 19:25:58;;;;;;;0.20;0.10;;;7.80;99.90;;;;;;21299505;27;20500;-67
2022/12/04 19:36:05;;;;;;;0.20;0.10;;;7.60;99.90;;;;;;21301862;27;20414;-67
2022/12/04 19:46:11;;;;;;;0.20;0.10;;;7.60;99.90;;;;;;21299724;27;20475;-67
2022/12/04 19:56:18;;;;;;;0.20;0.10;;;7.90;99.90;;;;;;21297727;27;20409;-67
2022/12/04 20:06:25;;;;;;;0.20;0.00;;;8.40;99.90;;;;;;21299603;27;20385;-67
2022/12/04 20:16:32;;;;;;;0.20;0.10;;;8.40;99.90;;;;;;21298301;27;20393;-67
2022/12/04 20:26:38;;;;;;;0.20;0.10;;;8.10;99.90;;;;;;21278078;27;20450;-67
2022/12/04 20:36:44;;;;;;;0.20;0.10;;;8.50;99.90;;;;;;21298192;27;20401;-67
2022/12/04 20:46:48;;;;;;;0.20;0.10;;;8.30;99.90;;;;;;21295524;28;20400;-67
2022/12/04 20:56:53;;;;;;;0.20;0.10;;;8.40;99.90;;;;;;21277414;28;20400;-67
2022/12/04 21:06:57;;;;;;;0.20;0.10;;;8.20;99.90;;;;;;21261498;28;20401;-67
2022/12/04 21:17:08;;;;;;;0.20;0.00;;;8.20;99.90;;;;;;21302145;27;20499;-67
2022/12/04 21:27:11;;;;;;;0.20;0.10;;;8.50;99.90;;;;;;21292879;27;20397;-67
2022/12/04 21:37:24;;;;;;;0.20;0.10;;;8.80;99.90;;;;;;21309199;27;20408;-67
2022/12/04 21:47:28;;;;;;;0.20;0.10;;;8.90;99.90;;;;;;21307693;27;20389;-68
2022/12/04 21:57:33;;;;;;;0.20;0.10;;;8.80;99.90;;;;;;21305500;27;20404;-67
2022/12/04 22:07:37;;;;;;;0.20;0.10;;;8.10;99.90;;;;;;21305561;27;20401;-69
2022/12/04 22:17:42;;;;;;;0.20;0.10;;;7.70;99.90;;;;;;21285235;27;20495;-67
2022/12/04 22:27:46;;;;;;;0.20;0.10;;;8.00;99.90;;;;;;21300756;27;20408;-68
2022/12/04 22:37:51;;;;;;;0.20;0.10;;;7.50;99.90;;;;;;21303239;27;20401;-68
2022/12/04 22:47:55;;;;;;;0.20;0.10;;;7.60;99.90;;;;;;21302009;27;20385;-68
2022/12/04 22:58:01;;;;;;;0.20;0.00;;;8.60;99.90;;;;;;21285489;27;20757;-69
2022/12/04 23:08:05;;;;;;;0.20;0.10;;;8.60;99.90;;;;;;21301893;27;20401;-69
2022/12/04 23:18:10;;;;;;;0.20;0.10;;;8.70;99.90;;;;;;21302440;27;20420;-69
2022/12/04 23:28:14;;;;;;;0.20;0.10;;;8.60;99.90;;;;;;21280130;27;20382;-67
2022/12/04 23:38:19;;;;;;;0.20;0.10;;;8.60;99.90;;;;;;21298366;27;20742;-68
2022/12/04 23:48:24;;;;;;;0.20;0.10;;;8.70;99.90;;;;;;21300000;27;20397;-67
2022/12/04 23:58:29;;;;;;;0.20;0.10;;;8.50;99.90;;;;;;21287180;27;20400;-68
